createdAt,value
2023-05-23T00:00:16.877Z,100624.34
2023-05-23T00:02:44.949Z,100627.03
2023-05-23T00:05:12.617Z,100620.75
2023-05-23T00:07:40.064Z,100612.69
2023-05-23T00:10:07.824Z,100610.03
2023-05-23T00:12:35.266Z,100604.69
2023-05-23T00:15:02.986Z,100607.38
2023-05-23T00:17:30.543Z,100604.66
2023-05-23T00:19:57.933Z,100603.66
2023-05-23T00:22:25.490Z,100600.25
2023-05-23T00:24:53.230Z,100595.88
2023-05-23T00:27:20.635Z,100604.81
2023-05-23T00:29:48.076Z,100603.09
2023-05-23T00:32:15.584Z,100598.69
2023-05-23T00:34:43.031Z,100601.41
2023-05-23T00:37:11.881Z,100599.75
2023-05-23T00:39:39.281Z,100611.31
2023-05-23T00:42:08.033Z,100612.97
2023-05-23T00:44:35.632Z,100615.75
2023-05-23T00:47:03.509Z,100617.63
2023-05-23T00:49:31.094Z,100620.25
2023-05-23T00:51:58.588Z,100613.28
2023-05-23T00:54:29.657Z,100619.59
2023-05-23T00:56:57.222Z,100609.00
2023-05-23T00:59:27.195Z,100616.16
2023-05-23T01:01:57.606Z,100618.84
2023-05-23T01:04:28.519Z,100628.59
2023-05-23T01:06:57.077Z,100625.94
2023-05-23T01:09:29.626Z,100635.72
2023-05-23T01:12:22.834Z,100640.06
2023-05-23T01:15:02.848Z,100635.72
2023-05-23T01:17:50.904Z,100644.66
2023-05-23T01:20:31.722Z,100652.59
2023-05-23T01:23:36.420Z,100644.63
2023-05-23T01:26:41.440Z,100653.56
2023-05-23T01:29:14.907Z,100660.69
2023-05-23T01:31:46.574Z,100654.50
2023-05-23T01:34:14.786Z,100656.34
2023-05-23T01:36:44.023Z,100650.09
2023-05-23T01:39:12.485Z,100657.28
2023-05-23T01:41:39.991Z,100654.66
2023-05-23T01:44:07.841Z,100669.78
2023-05-23T01:46:36.377Z,100669.78
2023-05-23T01:49:06.496Z,100674.25
2023-05-23T01:51:34.435Z,100667.94
2023-05-23T01:54:01.964Z,100665.31
2023-05-23T01:56:30.517Z,100666.16
2023-05-23T01:58:58.365Z,100668.75
2023-05-23T02:01:25.834Z,100667.94
2023-05-23T02:03:53.378Z,100663.47
2023-05-23T02:06:20.830Z,100659.00
2023-05-23T02:08:48.372Z,100664.41
2023-05-23T02:11:16.189Z,100662.66
2023-05-23T02:13:43.776Z,100664.53
2023-05-23T02:16:11.690Z,100675.09
2023-05-23T02:18:39.751Z,100672.50
2023-05-23T02:21:07.320Z,100671.63
2023-05-23T02:23:34.759Z,100668.09
2023-05-23T02:26:02.232Z,100663.72
2023-05-23T02:28:29.742Z,100670.84
2023-05-23T02:30:57.316Z,100679.69
2023-05-23T02:33:25.087Z,100671.75
2023-05-23T02:35:52.771Z,100670.00
2023-05-23T02:38:20.883Z,100663.78
2023-05-23T02:40:50.563Z,100671.81
2023-05-23T02:43:18.104Z,100671.78
2023-05-23T02:45:45.771Z,100674.47
2023-05-23T02:48:13.432Z,100666.50
2023-05-23T02:50:41.106Z,100668.28
2023-05-23T02:53:08.554Z,100670.88
2023-05-23T02:55:36.811Z,100669.06
2023-05-23T02:58:06.001Z,100667.41
2023-05-23T03:00:33.589Z,100666.50
2023-05-23T03:03:01.852Z,100662.88
2023-05-23T03:05:32.761Z,100665.50
2023-05-23T03:08:00.388Z,100669.13
2023-05-23T03:10:28.000Z,100651.28
2023-05-23T03:12:55.495Z,100645.06
2023-05-23T03:15:22.981Z,100645.06
2023-05-23T03:17:50.460Z,100644.34
2023-05-23T03:20:17.952Z,100636.28
2023-05-23T03:22:45.900Z,100647.06
2023-05-23T03:25:14.778Z,100648.84
2023-05-23T03:27:42.305Z,100644.50
2023-05-23T03:30:11.010Z,100663.16
2023-05-23T03:32:38.530Z,100672.97
2023-05-23T03:35:06.449Z,100673.88
2023-05-23T03:37:33.880Z,100671.25
2023-05-23T03:40:01.339Z,100668.53
2023-05-23T03:42:31.327Z,100667.69
2023-05-23T03:44:58.790Z,100669.50
2023-05-23T03:47:26.412Z,100660.59
2023-05-23T03:49:53.894Z,100657.06
2023-05-23T03:52:21.772Z,100651.72
2023-05-23T03:54:49.185Z,100643.75
2023-05-23T03:57:16.637Z,100639.31
2023-05-23T03:59:44.320Z,100629.56
2023-05-23T04:02:11.891Z,100620.72
2023-05-23T04:04:39.886Z,100608.31
2023-05-23T04:07:09.403Z,100596.72
2023-05-23T04:09:36.909Z,100577.03
2023-05-23T04:12:04.518Z,100570.84
2023-05-23T04:14:33.722Z,100553.06
2023-05-23T04:17:01.715Z,100545.06
2023-05-23T04:19:29.238Z,100546.88
2023-05-23T04:21:56.754Z,100546.88
2023-05-23T04:24:24.255Z,100537.91
2023-05-23T04:26:51.633Z,100534.38
2023-05-23T04:29:19.140Z,100537.06
2023-05-23T04:31:46.844Z,100533.50
2023-05-23T04:34:14.426Z,100528.25
2023-05-23T04:36:44.788Z,100533.59
2023-05-23T04:39:12.381Z,100523.91
2023-05-23T04:41:40.320Z,100533.66
2023-05-23T04:44:10.104Z,100538.13
2023-05-23T04:46:42.093Z,100544.38
2023-05-23T04:51:56.560Z,100579.97
2023-05-23T04:54:24.106Z,100586.22
2023-05-23T04:56:51.803Z,100595.03
2023-05-23T04:59:19.292Z,100598.59
2023-05-23T05:01:46.977Z,100603.00
2023-05-23T05:04:14.845Z,100618.16
2023-05-23T05:06:42.399Z,100619.03
2023-05-23T05:09:10.296Z,100623.41
2023-05-23T05:11:37.949Z,100622.50
2023-05-23T05:14:05.498Z,100626.06
2023-05-23T05:16:33.050Z,100624.22
2023-05-23T05:19:00.637Z,100617.00
2023-05-23T05:21:28.048Z,100618.72
2023-05-23T05:23:55.429Z,100619.53
2023-05-23T05:26:23.515Z,100617.66
2023-05-23T05:28:51.837Z,100593.66
2023-05-23T05:31:19.915Z,100590.97
2023-05-23T05:33:47.400Z,100569.69
2023-05-23T05:36:14.861Z,100565.13
2023-05-23T05:38:42.477Z,100550.03
2023-05-23T05:41:09.909Z,100531.50
2023-05-23T05:43:37.585Z,100531.44
2023-05-23T05:46:05.295Z,100544.66
2023-05-23T05:48:33.234Z,100541.06
2023-05-23T05:51:01.332Z,100536.59
2023-05-23T05:53:28.751Z,100549.69
2023-05-23T05:55:56.301Z,100537.16
2023-05-23T05:58:23.771Z,100525.59
2023-05-23T06:00:51.199Z,100504.31
2023-05-23T06:03:18.878Z,100499.78
2023-05-23T06:05:46.417Z,100492.75
2023-05-23T06:08:13.965Z,100468.88
2023-05-23T06:10:41.761Z,100477.69
2023-05-23T06:13:09.421Z,100467.00
2023-05-23T06:15:36.870Z,100481.19
2023-05-23T06:18:04.412Z,100461.81
2023-05-23T06:20:31.812Z,100483.91
2023-05-23T06:23:00.694Z,100481.25
2023-05-23T06:25:28.308Z,100478.66
2023-05-23T06:27:56.134Z,100481.41
2023-05-23T06:30:24.460Z,100480.59
2023-05-23T06:32:51.955Z,100498.19
2023-05-23T06:35:19.374Z,100492.03
2023-05-23T06:37:46.927Z,100514.25
2023-05-23T06:40:14.803Z,100516.88
2023-05-23T06:42:42.761Z,100512.44
2023-05-23T06:45:10.810Z,100507.97
2023-05-23T06:47:38.396Z,100507.16
2023-05-23T06:50:06.322Z,100489.41
2023-05-23T06:52:33.720Z,100505.31
2023-05-23T06:55:01.176Z,100516.88
2023-05-23T06:57:28.635Z,100527.56
2023-05-23T06:59:56.282Z,100528.59
2023-05-23T07:02:24.018Z,100536.50
2023-05-23T07:04:51.414Z,100534.72
2023-05-23T07:07:18.874Z,100539.16
2023-05-23T07:09:46.755Z,100506.44
2023-05-23T07:12:14.557Z,100508.16
2023-05-23T07:14:42.001Z,100509.09
2023-05-23T07:17:09.711Z,100508.88
2023-05-23T07:19:37.763Z,100490.16
2023-05-23T07:22:05.665Z,100498.94
2023-05-23T07:24:33.311Z,100488.06
2023-05-23T07:27:00.983Z,100483.44
2023-05-23T07:29:28.583Z,100438.06
2023-05-23T07:31:56.844Z,100439.59
2023-05-23T07:34:24.432Z,100442.97
2023-05-23T07:36:52.148Z,100433.38
2023-05-23T07:39:22.387Z,100423.47
2023-05-23T07:41:50.317Z,100412.75
2023-05-23T07:44:20.693Z,100415.03
2023-05-23T07:46:49.942Z,100398.22
2023-05-23T07:49:17.439Z,100398.13
2023-05-23T07:51:44.892Z,100407.84
2023-05-23T07:54:13.622Z,100403.28
2023-05-23T07:56:43.630Z,100414.78
2023-05-23T07:59:11.139Z,100380.47
2023-05-23T08:01:38.595Z,100390.06
2023-05-23T08:04:06.611Z,100354.75
2023-05-23T08:06:34.079Z,100383.75
2023-05-23T08:09:02.224Z,100379.56
2023-05-23T08:11:30.517Z,100368.97
2023-05-23T08:14:01.463Z,100356.31
2023-05-23T08:16:29.092Z,100371.31
2023-05-23T08:18:56.496Z,100347.44
2023-05-23T08:21:24.886Z,100360.47
2023-05-23T08:23:52.358Z,100334.00
2023-05-23T08:26:19.491Z,100348.13
2023-05-23T08:28:47.234Z,100323.38
2023-05-23T08:31:14.662Z,100341.84
2023-05-23T08:33:42.686Z,100334.56
2023-05-23T08:36:10.183Z,100312.69
2023-05-23T08:38:37.626Z,100333.75
2023-05-23T08:41:17.268Z,100349.72
2023-05-23T08:43:44.827Z,100349.63
2023-05-23T08:46:13.423Z,100319.66
2023-05-23T08:48:41.821Z,100319.47
2023-05-23T08:51:13.858Z,100359.13
2023-05-23T08:53:50.568Z,100349.09
2023-05-23T08:56:20.337Z,100349.72
2023-05-23T08:58:48.081Z,100348.13
2023-05-23T09:01:18.453Z,100339.66
2023-05-23T09:03:46.075Z,100267.69
2023-05-23T09:06:13.556Z,100306.47
2023-05-23T09:08:41.039Z,100301.09
2023-05-23T09:11:09.103Z,100247.44
2023-05-23T09:13:36.728Z,100185.72
2023-05-23T09:16:10.641Z,100183.06
2023-05-23T09:18:40.238Z,100229.91
2023-05-23T09:21:09.924Z,100130.50
2023-05-23T09:23:40.295Z,100158.81
2023-05-23T09:26:10.532Z,100184.84
2023-05-23T09:28:40.324Z,100138.31
2023-05-23T09:31:08.839Z,100175.34
2023-05-23T09:33:50.903Z,100157.53
2023-05-23T09:36:18.757Z,100163.59
2023-05-23T09:38:48.903Z,100098.19
2023-05-23T09:41:16.432Z,100054.88
2023-05-23T09:43:54.638Z,100059.19
2023-05-23T09:46:22.871Z,100118.31
2023-05-23T09:48:52.313Z,100087.97
2023-05-23T09:51:21.710Z,100054.81
2023-05-23T09:53:50.280Z,100083.75
2023-05-23T09:56:18.268Z,100073.28
2023-05-23T09:58:49.047Z,100079.06
2023-05-23T10:01:17.561Z,100041.47
2023-05-23T10:03:59.986Z,100050.56
2023-05-23T10:06:29.373Z,100048.59
2023-05-23T10:09:05.704Z,100009.91
2023-05-23T10:11:36.045Z,99978.16
2023-05-23T10:14:09.680Z,99967.66
2023-05-23T10:17:04.016Z,99921.56
2023-05-23T10:19:45.122Z,99916.28
2023-05-23T10:22:15.209Z,99950.84
2023-05-23T10:24:43.678Z,99941.38
2023-05-23T10:27:11.317Z,99975.09
2023-05-23T10:29:38.814Z,99907.59
2023-05-23T10:32:07.566Z,99930.78
2023-05-23T10:35:11.582Z,99896.31
2023-05-23T10:38:13.981Z,99896.75
2023-05-23T10:41:12.763Z,99912.78
2023-05-23T10:44:26.853Z,99947.94
2023-05-23T10:47:02.466Z,99975.78
2023-05-23T10:52:16.944Z,99960.28
2023-05-23T10:54:51.336Z,99887.22
2023-05-23T10:57:27.911Z,99894.22
2023-05-23T10:59:57.504Z,99896.31
2023-05-23T11:02:29.348Z,99900.50
2023-05-23T11:05:26.946Z,99924.72
2023-05-23T11:08:16.258Z,99869.16
2023-05-23T11:11:09.602Z,99817.50
2023-05-23T11:14:02.888Z,99815.53
2023-05-23T11:16:32.827Z,99842.53
2023-05-23T11:19:19.023Z,99832.44
2023-05-23T11:21:53.433Z,99843.28
2023-05-23T11:24:20.941Z,99828.13
2023-05-23T11:27:00.482Z,99829.91
2023-05-23T11:29:31.779Z,99788.94
2023-05-23T11:31:59.254Z,99815.75
2023-05-23T11:34:27.188Z,99824.91
2023-05-23T11:36:56.624Z,99826.72
2023-05-23T11:39:24.345Z,99806.00
2023-05-23T11:42:04.622Z,99836.88
2023-05-23T11:44:32.025Z,99818.00
2023-05-23T11:47:09.170Z,99833.28
2023-05-23T11:52:08.365Z,99742.13
2023-05-23T11:54:35.972Z,99745.91
2023-05-23T11:57:04.041Z,99782.28
2023-05-23T11:59:31.616Z,99769.00
2023-05-23T12:01:59.051Z,99724.91
2023-05-23T12:04:27.294Z,99736.78
2023-05-23T12:06:54.883Z,99686.38
2023-05-23T12:09:22.437Z,99677.44
2023-05-23T12:11:50.504Z,99709.22
2023-05-23T12:14:18.459Z,99603.78
2023-05-23T12:16:49.673Z,99551.69
2023-05-23T12:19:20.217Z,99584.09
2023-05-23T12:21:49.501Z,99649.44
2023-05-23T12:24:21.876Z,99591.66
2023-05-23T12:27:03.964Z,99643.31
2023-05-23T12:29:37.260Z,99572.16
2023-05-23T12:32:07.500Z,99556.06
2023-05-23T12:34:35.047Z,99531.28
2023-05-23T12:37:19.054Z,99563.03
2023-05-23T12:39:47.364Z,99614.53
2023-05-23T12:42:14.803Z,99556.78
2023-05-23T12:44:43.807Z,99585.19
2023-05-23T12:47:11.692Z,99531.25
2023-05-23T12:49:45.419Z,99477.16
2023-05-23T12:52:12.962Z,99621.13
2023-05-23T12:54:40.501Z,99575.72
2023-05-23T12:57:07.945Z,99487.78
2023-05-23T12:59:38.086Z,99494.22
2023-05-23T13:02:05.864Z,99496.53
2023-05-23T13:04:33.668Z,99586.31
2023-05-23T13:07:01.103Z,99637.50
2023-05-23T13:09:28.521Z,99584.69
2023-05-23T13:11:56.513Z,99601.94
2023-05-23T13:14:23.978Z,99514.00
2023-05-23T13:16:52.292Z,99475.91
2023-05-23T13:19:19.937Z,99515.44
2023-05-23T13:21:49.548Z,99464.63
2023-05-23T13:24:17.900Z,99428.66
2023-05-23T13:26:45.498Z,99393.31
2023-05-23T13:29:12.956Z,99460.41
2023-05-23T13:31:40.384Z,99484.81
2023-05-23T13:34:07.809Z,99427.06
2023-05-23T13:36:36.097Z,99411.31
2023-05-23T13:39:04.956Z,99422.28
2023-05-23T13:41:32.375Z,99299.09
2023-05-23T13:44:10.013Z,99361.22
2023-05-23T13:46:38.466Z,99479.19
2023-05-23T13:49:06.172Z,99308.31
2023-05-23T13:51:33.863Z,99167.41
2023-05-23T13:54:01.816Z,99252.91
2023-05-23T13:56:29.292Z,99186.31
2023-05-23T13:58:57.896Z,99169.41
2023-05-23T14:01:25.378Z,99191.28
2023-05-23T14:03:53.292Z,99219.16
2023-05-23T14:06:20.950Z,99208.28
2023-05-23T14:08:48.981Z,99257.34
2023-05-23T14:11:16.038Z,99224.78
2023-05-23T14:13:51.434Z,99270.56
2023-05-23T14:16:18.914Z,99290.63
2023-05-23T14:18:46.613Z,99217.59
2023-05-23T14:21:14.011Z,99248.47
2023-05-23T14:23:41.798Z,99303.91
2023-05-23T14:26:09.373Z,99348.91
2023-05-23T14:28:36.990Z,99270.44
2023-05-23T14:31:04.382Z,99167.34
2023-05-23T14:33:32.022Z,99216.84
2023-05-23T14:35:59.579Z,99230.31
2023-05-23T14:38:27.427Z,99315.03
2023-05-23T14:40:55.343Z,99278.13
2023-05-23T14:43:22.881Z,99320.25
2023-05-23T14:45:50.425Z,99299.31
2023-05-23T14:48:17.972Z,99232.13
2023-05-23T14:50:45.366Z,99278.72
2023-05-23T14:53:12.915Z,99225.25
2023-05-23T14:55:40.762Z,99317.31
2023-05-23T14:58:08.909Z,99308.88
2023-05-23T15:00:36.352Z,99252.31
2023-05-23T15:03:04.787Z,99216.63
2023-05-23T15:05:32.455Z,99245.50
2023-05-23T15:07:59.924Z,99198.72
2023-05-23T15:10:27.372Z,99104.44
2023-05-23T15:12:54.956Z,99068.81
2023-05-23T15:15:23.642Z,99090.09
2023-05-23T15:17:51.483Z,99171.53
2023-05-23T15:20:19.132Z,99180.19
2023-05-23T15:22:46.629Z,99129.19
2023-05-23T15:25:14.032Z,99064.00
2023-05-23T15:27:41.930Z,99107.84
2023-05-23T15:30:09.768Z,99133.41
2023-05-23T15:32:37.235Z,99069.97
2023-05-23T15:35:05.173Z,99140.94
2023-05-23T15:37:32.618Z,99209.69
2023-05-23T15:40:00.139Z,99277.06
2023-05-23T15:42:27.565Z,99202.06
2023-05-23T15:44:54.956Z,99178.34
2023-05-23T15:47:22.521Z,99248.06
2023-05-23T15:52:22.764Z,99172.22
2023-05-23T15:54:50.192Z,99211.41
2023-05-23T15:57:17.683Z,99155.31
2023-05-23T15:59:45.138Z,99127.63
2023-05-23T16:02:12.644Z,99306.34
2023-05-23T16:04:40.117Z,99193.88
2023-05-23T16:07:07.565Z,99195.78
2023-05-23T16:09:34.977Z,99188.13
2023-05-23T16:12:02.385Z,99170.22
2023-05-23T16:14:31.552Z,99224.47
2023-05-23T16:17:02.912Z,99221.19
2023-05-23T16:19:35.743Z,99217.81
2023-05-23T16:22:03.255Z,99283.00
2023-05-23T16:24:30.717Z,99227.44
2023-05-23T16:26:59.277Z,99040.13
2023-05-23T16:29:26.729Z,99149.56
2023-05-23T16:31:54.118Z,99199.59
2023-05-23T16:34:21.490Z,99153.53
2023-05-23T16:36:49.043Z,99088.94
2023-05-23T16:39:16.629Z,99141.28
2023-05-23T16:41:44.095Z,99078.38
2023-05-23T16:44:11.462Z,99146.06
2023-05-23T16:46:39.101Z,99131.13
2023-05-23T16:49:06.496Z,99065.78
2023-05-23T16:51:33.956Z,99148.94
2023-05-23T16:54:01.355Z,99129.78
2023-05-23T16:56:28.846Z,99125.50
2023-05-23T16:58:56.958Z,99067.81
2023-05-23T17:01:24.520Z,99135.59
2023-05-23T17:03:52.170Z,99114.94
2023-05-23T17:06:19.770Z,99094.88
2023-05-23T17:08:47.125Z,99218.44
2023-05-23T17:11:14.617Z,99123.63
2023-05-23T17:13:42.720Z,99098.28
2023-05-23T17:16:10.614Z,99053.78
2023-05-23T17:18:38.208Z,99042.31
2023-05-23T17:21:05.599Z,99074.94
2023-05-23T17:23:33.036Z,99042.72
2023-05-23T17:26:00.513Z,99022.59
2023-05-23T17:28:27.836Z,99082.66
2023-05-23T17:30:55.529Z,99023.31
2023-05-23T17:33:23.147Z,99003.41
2023-05-23T17:35:50.623Z,99048.50
2023-05-23T17:38:18.574Z,99040.50
2023-05-23T17:40:46.281Z,99061.03
2023-05-23T17:43:13.897Z,99040.84
2023-05-23T17:45:41.562Z,99003.06
2023-05-23T17:48:09.008Z,99003.81
2023-05-23T17:50:36.490Z,99014.09
2023-05-23T17:53:04.503Z,99064.13
2023-05-23T17:55:32.052Z,99117.84
2023-05-23T17:57:59.505Z,99115.78
2023-05-23T18:00:26.912Z,99166.22
2023-05-23T18:02:55.092Z,99145.59
2023-05-23T18:05:23.737Z,99208.00
2023-05-23T18:07:51.234Z,99189.59
2023-05-23T18:10:18.699Z,99160.63
2023-05-23T18:12:46.613Z,99045.06
2023-05-23T18:15:14.031Z,99006.59
2023-05-23T18:17:41.730Z,99056.50
2023-05-23T18:20:09.795Z,99011.88
2023-05-23T18:22:37.249Z,99019.84
2023-05-23T18:25:05.127Z,99033.56
2023-05-23T18:27:32.782Z,99045.06
2023-05-23T18:30:00.181Z,99065.81
2023-05-23T18:32:27.552Z,99042.41
2023-05-23T18:34:55.029Z,99070.13
2023-05-23T18:37:22.461Z,99063.09
2023-05-23T18:39:49.830Z,99093.34
2023-05-23T18:42:17.384Z,99097.06
2023-05-23T18:44:44.831Z,99155.94
2023-05-23T18:47:12.662Z,99149.03
2023-05-23T18:49:40.141Z,99183.22
2023-05-23T18:52:07.659Z,99175.84
2023-05-23T18:54:35.532Z,99193.81
2023-05-23T18:57:03.392Z,99223.13
2023-05-23T18:59:30.840Z,99232.16
2023-05-23T19:02:00.240Z,99204.81
2023-05-23T19:04:27.805Z,99227.91
2023-05-23T19:06:55.439Z,99237.81
2023-05-23T19:09:23.031Z,99209.63
2023-05-23T19:11:50.596Z,99188.72
2023-05-23T19:14:18.104Z,99206.81
2023-05-23T19:16:46.275Z,99157.03
2023-05-23T19:19:14.614Z,99152.81
2023-05-23T19:21:42.312Z,99186.97
2023-05-23T19:24:10.046Z,99145.16
2023-05-23T19:26:37.902Z,99187.41
2023-05-23T19:29:06.379Z,99205.25
2023-05-23T19:31:34.305Z,99174.06
2023-05-23T19:34:01.741Z,99179.63
2023-05-23T19:36:29.122Z,99178.16
2023-05-23T19:38:56.765Z,99179.84
2023-05-23T19:41:24.208Z,99183.63
2023-05-23T19:43:52.045Z,99184.81
2023-05-23T19:46:19.516Z,99232.44
2023-05-23T19:48:46.953Z,99211.56
2023-05-23T19:51:14.415Z,99240.75
2023-05-23T19:53:42.508Z,99219.22
2023-05-23T19:56:09.878Z,99255.44
2023-05-23T19:58:37.281Z,99277.88
2023-05-23T20:01:04.846Z,99285.06
2023-05-23T20:03:32.822Z,99302.13
2023-05-23T20:06:00.211Z,99352.50
2023-05-23T20:08:27.612Z,99328.31
2023-05-23T20:10:56.120Z,99345.47
2023-05-23T20:13:23.518Z,99363.38
2023-05-23T20:15:51.126Z,99373.09
2023-05-23T20:18:18.566Z,99386.50
2023-05-23T20:20:46.044Z,99415.06
2023-05-23T20:23:13.673Z,99438.00
2023-05-23T20:25:41.710Z,99430.44
2023-05-23T20:28:09.063Z,99454.31
2023-05-23T20:30:36.836Z,99482.59
2023-05-23T20:33:04.415Z,99475.06
2023-05-23T20:35:32.206Z,99493.66
2023-05-23T20:37:59.670Z,99491.94
2023-05-23T20:40:29.738Z,99516.03
2023-05-23T20:43:00.777Z,99545.38
2023-05-23T20:45:28.173Z,99570.34
2023-05-23T20:47:55.600Z,99591.59
2023-05-23T20:50:23.039Z,99607.59
2023-05-23T20:52:51.001Z,99617.56
2023-05-23T20:55:18.959Z,99626.69
2023-05-23T20:57:46.459Z,99670.72
2023-05-23T21:00:14.272Z,99692.91
2023-05-23T21:02:42.405Z,99695.78
2023-05-23T21:05:11.562Z,99711.88
2023-05-23T21:07:39.176Z,99725.25
2023-05-23T21:10:07.097Z,99754.44
2023-05-23T21:12:34.650Z,99759.91
2023-05-23T21:15:02.220Z,99777.75
2023-05-23T21:17:29.682Z,99829.81
2023-05-23T21:19:57.126Z,99845.91
2023-05-23T21:22:24.697Z,99867.13
2023-05-23T21:24:52.184Z,99868.19
2023-05-23T21:27:19.785Z,99877.13
2023-05-23T21:29:47.290Z,99898.34
2023-05-23T21:32:14.802Z,99924.88
2023-05-23T21:34:42.200Z,99944.31
2023-05-23T21:37:09.611Z,99930.22
2023-05-23T21:39:50.665Z,99949.66
2023-05-23T21:42:19.355Z,99971.69
2023-05-23T21:44:46.868Z,99963.81
2023-05-23T21:47:14.300Z,99988.69
2023-05-23T21:49:41.680Z,100004.59
2023-05-23T21:52:09.279Z,99992.28
2023-05-23T21:54:36.675Z,100014.47
2023-05-23T21:57:04.266Z,100021.50
2023-05-23T21:59:31.663Z,100030.38
2023-05-23T22:01:59.732Z,100045.44
2023-05-23T22:04:27.255Z,100074.59
2023-05-23T22:06:54.926Z,100081.72
2023-05-23T22:09:22.313Z,100094.03
2023-05-23T22:11:49.670Z,100098.50
2023-05-23T22:14:17.121Z,100104.69
2023-05-23T22:16:44.705Z,100105.63
2023-05-23T22:19:12.652Z,100105.63
2023-05-23T22:21:40.150Z,100112.69
2023-05-23T22:24:07.660Z,100134.78
2023-05-23T22:26:35.099Z,100140.06
2023-05-23T22:29:02.650Z,100130.41
2023-05-23T22:31:30.149Z,100141.88
2023-05-23T22:33:57.676Z,100144.59
2023-05-23T22:36:25.055Z,100160.50
2023-05-23T22:38:52.467Z,100155.25
2023-05-23T22:41:20.042Z,100164.97
2023-05-23T22:43:47.486Z,100168.50
2023-05-23T22:46:14.987Z,100191.47
2023-05-23T22:48:42.912Z,100193.25
2023-05-23T22:51:12.546Z,100185.31
2023-05-23T22:53:41.217Z,100215.34
2023-05-23T22:56:08.691Z,100226.84
2023-05-23T22:58:36.200Z,100250.72
2023-05-23T23:01:03.638Z,100252.50
2023-05-23T23:03:31.048Z,100272.81
2023-05-23T23:05:59.340Z,100266.63
2023-05-23T23:08:27.367Z,100283.41
2023-05-23T23:10:54.752Z,100277.22
2023-05-23T23:13:22.159Z,100276.34
2023-05-23T23:15:50.257Z,100284.28
2023-05-23T23:18:18.942Z,100281.66
2023-05-23T23:20:47.102Z,100283.41
2023-05-23T23:23:15.010Z,100283.44
2023-05-23T23:25:42.534Z,100298.44
2023-05-23T23:28:09.878Z,100296.69
2023-05-23T23:30:37.342Z,100291.41
2023-05-23T23:33:04.839Z,100304.63
2023-05-23T23:35:32.285Z,100295.81
2023-05-23T23:37:59.705Z,100289.63
2023-05-23T23:40:27.249Z,100290.50
2023-05-23T23:42:54.968Z,100287.88
2023-05-23T23:45:22.465Z,100312.63
2023-05-23T23:47:49.903Z,100315.25
2023-05-23T23:50:17.500Z,100332.06
2023-05-23T23:52:44.955Z,100322.31
2023-05-23T23:55:12.398Z,100334.69
2023-05-23T23:57:39.818Z,100339.09
